createdAt,value
2023-03-21T00:02:16.636Z,12.90
2023-03-21T00:04:51.275Z,12.90
2023-03-21T00:07:19.583Z,12.90
2023-03-21T00:09:48.005Z,12.80
2023-03-21T00:12:16.717Z,12.80
2023-03-21T00:14:44.845Z,12.80
2023-03-21T00:17:12.261Z,12.80
2023-03-21T00:19:41.375Z,12.80
2023-03-21T00:22:09.283Z,12.70
2023-03-21T00:24:39.337Z,12.70
2023-03-21T00:27:42.968Z,12.70
2023-03-21T00:29:54.340Z,12.60
2023-03-21T00:32:22.127Z,12.60
2023-03-21T00:35:34.809Z,12.60
2023-03-21T00:37:37.503Z,12.60
2023-03-21T00:40:16.294Z,12.60
2023-03-21T00:42:47.754Z,12.60
2023-03-21T00:45:15.603Z,12.50
2023-03-21T00:47:42.828Z,12.50
2023-03-21T00:50:11.969Z,12.50
2023-03-21T00:52:41.329Z,12.50
2023-03-21T00:55:14.678Z,12.40
2023-03-21T00:57:45.299Z,12.40
2023-03-21T01:00:15.548Z,12.40
2023-03-21T01:03:02.536Z,12.40
2023-03-21T01:05:56.289Z,12.40
2023-03-21T01:08:29.526Z,12.30
2023-03-21T01:11:07.607Z,12.30
2023-03-21T01:13:38.421Z,12.30
2023-03-21T01:16:09.357Z,12.30
2023-03-21T01:18:38.763Z,12.30
2023-03-21T01:21:13.104Z,12.30
2023-03-21T01:23:42.538Z,12.20
2023-03-21T01:26:11.556Z,12.20
2023-03-21T01:28:40.671Z,12.20
2023-03-21T01:31:08.231Z,12.20
2023-03-21T01:33:36.286Z,12.20
2023-03-21T01:36:12.823Z,12.10
2023-03-21T01:38:41.666Z,12.10
2023-03-21T01:41:42.350Z,12.10
2023-03-21T01:44:16.971Z,12.10
2023-03-21T01:47:03.525Z,12.00
2023-03-21T01:49:46.430Z,12.00
2023-03-21T01:52:29.691Z,12.00
2023-03-21T01:54:57.680Z,12.00
2023-03-21T01:57:42.337Z,11.90
2023-03-21T02:00:15.900Z,11.90
2023-03-21T02:02:52.172Z,11.80
2023-03-21T02:05:30.216Z,11.90
2023-03-21T02:07:57.339Z,11.90
2023-03-21T02:10:24.465Z,11.90
2023-03-21T02:12:55.042Z,11.90
2023-03-21T02:15:24.891Z,11.80
2023-03-21T02:18:03.754Z,11.80
2023-03-21T02:21:05.607Z,11.80
2023-03-21T02:23:47.533Z,11.80
2023-03-21T02:26:33.361Z,11.80
2023-03-21T02:29:38.726Z,11.70
2023-03-21T02:32:36.604Z,11.60
2023-03-21T02:35:10.855Z,11.60
2023-03-21T02:38:18.067Z,11.60
2023-03-21T02:40:55.755Z,11.60
2023-03-21T02:43:41.060Z,11.50
2023-03-21T02:46:24.403Z,11.60
2023-03-21T02:49:03.253Z,11.50
2023-03-21T02:51:32.879Z,11.50
2023-03-21T02:56:57.796Z,11.50
2023-03-21T02:59:27.031Z,11.50
2023-03-21T03:01:56.323Z,11.50
2023-03-21T03:04:28.164Z,11.50
2023-03-21T03:06:58.239Z,11.50
2023-03-21T03:09:49.633Z,11.60
2023-03-21T03:12:36.561Z,11.60
2023-03-21T03:15:29.362Z,11.60
2023-03-21T03:18:26.197Z,11.60
2023-03-21T03:20:53.197Z,11.60
2023-03-21T03:23:35.769Z,11.60
2023-03-21T03:26:08.958Z,11.60
2023-03-21T03:28:40.615Z,11.50
2023-03-21T03:31:12.872Z,11.50
2023-03-21T03:33:45.863Z,11.40
2023-03-21T03:36:30.324Z,11.40
2023-03-21T03:39:00.854Z,11.40
2023-03-21T03:41:30.220Z,11.30
2023-03-21T03:44:04.048Z,11.20
2023-03-21T03:46:36.631Z,11.20
2023-03-21T03:49:18.612Z,11.10
2023-03-21T03:52:00.247Z,11.00
2023-03-21T03:54:38.413Z,11.00
2023-03-21T03:57:06.795Z,10.90
2023-03-21T03:59:38.513Z,10.80
2023-03-21T04:02:05.889Z,10.80
2023-03-21T04:04:34.215Z,10.80
2023-03-21T04:07:03.513Z,10.70
2023-03-21T04:09:43.236Z,10.70
2023-03-21T04:12:13.000Z,10.70
2023-03-21T04:14:45.704Z,10.70
2023-03-21T04:17:15.142Z,10.70
2023-03-21T04:19:42.645Z,10.70
2023-03-21T04:22:09.870Z,10.70
2023-03-21T04:24:37.600Z,10.70
2023-03-21T04:27:05.956Z,10.80
2023-03-21T04:29:33.521Z,10.80
2023-03-21T04:32:01.445Z,10.90
2023-03-21T04:34:28.729Z,10.80
2023-03-21T04:36:56.583Z,10.90
2023-03-21T04:39:24.805Z,10.90
2023-03-21T04:41:51.969Z,10.90
2023-03-21T04:44:19.394Z,10.90
2023-03-21T04:46:46.474Z,11.00
2023-03-21T04:49:13.625Z,11.00
2023-03-21T04:51:42.039Z,11.00
2023-03-21T04:54:12.098Z,11.10
2023-03-21T04:56:39.487Z,11.10
2023-03-21T04:59:10.822Z,11.10
2023-03-21T05:01:38.045Z,11.10
2023-03-21T05:04:06.438Z,11.10
2023-03-21T05:06:34.500Z,11.10
2023-03-21T05:09:07.175Z,11.20
2023-03-21T05:11:37.836Z,11.20
2023-03-21T05:14:06.701Z,11.20
2023-03-21T05:16:34.795Z,11.20
2023-03-21T05:19:05.940Z,11.20
2023-03-21T05:21:42.038Z,11.30
2023-03-21T05:24:14.545Z,11.30
2023-03-21T05:26:43.204Z,11.40
2023-03-21T05:29:11.310Z,11.40
2023-03-21T05:31:38.396Z,11.40
2023-03-21T05:34:05.534Z,11.40
2023-03-21T05:36:34.098Z,11.50
2023-03-21T05:39:01.944Z,11.50
2023-03-21T05:41:29.321Z,11.60
2023-03-21T05:43:56.475Z,11.60
2023-03-21T05:46:23.622Z,11.60
2023-03-21T05:48:50.884Z,11.60
2023-03-21T05:51:18.728Z,11.70
2023-03-21T05:53:45.939Z,11.70
2023-03-21T05:56:13.121Z,11.80
2023-03-21T05:58:40.243Z,11.80
2023-03-21T06:01:07.584Z,11.90
2023-03-21T06:03:34.729Z,11.90
2023-03-21T06:06:03.499Z,12.00
2023-03-21T06:08:34.349Z,12.10
2023-03-21T06:11:01.686Z,12.20
2023-03-21T06:13:28.884Z,12.30
2023-03-21T06:15:55.998Z,12.30
2023-03-21T06:18:23.079Z,12.50
2023-03-21T06:20:50.754Z,12.50
2023-03-21T06:23:18.099Z,12.60
2023-03-21T06:25:45.392Z,12.60
2023-03-21T06:28:15.156Z,12.70
2023-03-21T06:30:42.212Z,12.70
2023-03-21T06:33:09.388Z,12.70
2023-03-21T06:35:36.875Z,12.80
2023-03-21T06:38:04.255Z,12.80
2023-03-21T06:40:31.532Z,12.90
2023-03-21T06:42:58.579Z,12.90
2023-03-21T06:45:26.050Z,13.00
2023-03-21T06:47:53.151Z,13.10
2023-03-21T06:50:20.662Z,13.10
2023-03-21T06:52:48.750Z,13.10
2023-03-21T06:55:15.940Z,13.10
2023-03-21T06:57:43.025Z,13.10
2023-03-21T07:00:12.028Z,13.10
2023-03-21T07:02:39.168Z,13.20
2023-03-21T07:05:06.857Z,13.30
2023-03-21T07:07:33.987Z,13.40
2023-03-21T07:10:01.243Z,13.50
2023-03-21T07:12:28.365Z,13.60
2023-03-21T07:14:55.752Z,13.60
2023-03-21T07:17:22.816Z,13.70
2023-03-21T07:19:49.954Z,13.70
2023-03-21T07:22:17.361Z,13.70
2023-03-21T07:24:47.225Z,13.80
2023-03-21T07:27:18.752Z,13.80
2023-03-21T07:29:47.442Z,13.80
2023-03-21T07:32:14.539Z,13.70
2023-03-21T07:34:42.152Z,13.60
2023-03-21T07:37:09.886Z,13.70
2023-03-21T07:39:37.205Z,13.70
2023-03-21T07:42:04.640Z,13.80
2023-03-21T07:44:33.632Z,13.90
2023-03-21T07:47:00.686Z,14.00
2023-03-21T07:49:27.987Z,14.10
2023-03-21T07:51:55.357Z,14.00
2023-03-21T07:54:23.240Z,14.00
2023-03-21T07:56:50.540Z,14.00
2023-03-21T07:59:17.648Z,14.00
2023-03-21T08:01:44.753Z,14.00
2023-03-21T08:04:11.931Z,14.00
2023-03-21T08:06:39.001Z,14.20
2023-03-21T08:09:07.781Z,14.30
2023-03-21T08:11:35.033Z,14.30
2023-03-21T08:14:02.318Z,14.30
2023-03-21T08:16:29.606Z,14.30
2023-03-21T08:18:56.836Z,14.40
2023-03-21T08:21:24.017Z,14.50
2023-03-21T08:23:51.497Z,14.60
2023-03-21T08:26:19.477Z,14.70
2023-03-21T08:28:46.766Z,14.80
2023-03-21T08:31:15.551Z,14.90
2023-03-21T08:33:42.758Z,15.10
2023-03-21T08:36:10.610Z,15.20
2023-03-21T08:38:37.788Z,15.30
2023-03-21T08:41:05.080Z,15.30
2023-03-21T08:43:32.403Z,15.40
2023-03-21T08:45:59.639Z,15.30
2023-03-21T08:48:26.961Z,15.20
2023-03-21T08:50:54.112Z,15.20
2023-03-21T08:53:21.303Z,15.30
2023-03-21T08:55:49.838Z,15.40
2023-03-21T08:58:17.672Z,15.60
2023-03-21T09:00:44.842Z,15.70
2023-03-21T09:03:11.980Z,15.90
2023-03-21T09:05:39.731Z,16.10
2023-03-21T09:08:07.258Z,16.20
2023-03-21T09:10:34.376Z,16.40
2023-03-21T09:13:01.556Z,16.50
2023-03-21T09:15:29.867Z,16.40
2023-03-21T09:17:58.880Z,16.30
2023-03-21T09:20:31.388Z,16.60
2023-03-21T09:22:59.859Z,16.80
2023-03-21T09:25:31.388Z,16.90
2023-03-21T09:28:00.401Z,17.10
2023-03-21T09:30:30.170Z,17.20
2023-03-21T09:32:59.696Z,17.40
2023-03-21T09:35:28.314Z,17.40
2023-03-21T09:37:57.568Z,17.20
2023-03-21T09:41:03.398Z,17.00
2023-03-21T09:43:44.564Z,17.00
2023-03-21T09:46:21.730Z,17.00
2023-03-21T09:49:07.941Z,17.00
2023-03-21T09:51:39.799Z,17.10
2023-03-21T09:54:19.131Z,17.40
2023-03-21T09:56:47.743Z,17.60
2023-03-21T09:59:25.171Z,17.70
2023-03-21T10:01:52.613Z,17.90
2023-03-21T10:04:20.714Z,18.10
2023-03-21T10:06:59.427Z,18.20
2023-03-21T10:09:28.612Z,18.00
2023-03-21T10:12:18.744Z,17.70
2023-03-21T10:14:50.147Z,17.50
2023-03-21T10:17:26.409Z,17.30
2023-03-21T10:20:12.346Z,17.30
2023-03-21T10:22:39.931Z,17.30
2023-03-21T10:25:09.025Z,17.50
2023-03-21T10:27:37.128Z,17.60
2023-03-21T10:30:07.631Z,17.80
2023-03-21T10:32:35.936Z,17.80
2023-03-21T10:35:05.575Z,17.90
2023-03-21T10:37:35.363Z,18.00
2023-03-21T10:40:02.532Z,18.10
2023-03-21T10:42:32.954Z,18.30
2023-03-21T10:45:00.329Z,18.40
2023-03-21T10:47:33.600Z,18.50
2023-03-21T10:50:13.085Z,18.60
2023-03-21T10:52:47.832Z,18.70
2023-03-21T10:55:21.627Z,18.90
2023-03-21T10:57:53.155Z,19.20
2023-03-21T11:00:25.812Z,19.20
2023-03-21T11:02:54.593Z,18.90
2023-03-21T11:05:27.313Z,18.80
2023-03-21T11:08:00.741Z,18.80
2023-03-21T11:10:31.177Z,18.50
2023-03-21T11:13:01.531Z,18.50
2023-03-21T11:15:30.944Z,18.70
2023-03-21T11:17:59.907Z,18.70
2023-03-21T11:20:31.523Z,18.90
2023-03-21T11:22:58.752Z,19.10
2023-03-21T11:25:47.803Z,19.20
2023-03-21T11:28:24.237Z,19.20
2023-03-21T11:30:57.642Z,19.40
2023-03-21T11:33:33.580Z,19.50
2023-03-21T11:36:02.327Z,19.20
2023-03-21T11:38:39.329Z,19.10
2023-03-21T11:41:07.129Z,19.10
2023-03-21T11:43:40.470Z,18.90
2023-03-21T11:46:13.737Z,19.00
2023-03-21T11:48:47.052Z,18.90
2023-03-21T11:51:23.265Z,18.70
2023-03-21T11:54:19.877Z,18.70
2023-03-21T11:57:46.596Z,18.70
2023-03-21T12:00:44.779Z,18.70
2023-03-21T12:03:25.480Z,18.70
2023-03-21T12:05:58.248Z,18.80
2023-03-21T12:09:08.859Z,18.80
2023-03-21T12:11:52.383Z,18.80
2023-03-21T12:14:47.142Z,18.70
2023-03-21T12:17:38.161Z,18.70
2023-03-21T12:20:12.780Z,18.50
2023-03-21T12:23:05.616Z,18.30
2023-03-21T12:25:39.992Z,18.30
2023-03-21T12:28:45.578Z,18.20
2023-03-21T12:31:55.592Z,18.20
2023-03-21T12:34:50.005Z,18.30
2023-03-21T12:37:23.954Z,18.60
2023-03-21T12:39:51.671Z,18.50
2023-03-21T12:42:49.628Z,18.50
2023-03-21T12:45:25.904Z,18.60
2023-03-21T12:47:58.154Z,18.80
2023-03-21T12:50:29.959Z,19.00
2023-03-21T12:53:34.618Z,19.00
2023-03-21T12:56:07.669Z,19.00
2023-03-21T12:58:52.740Z,19.10
2023-03-21T13:01:23.454Z,19.20
2023-03-21T13:04:04.293Z,19.30
2023-03-21T13:06:31.679Z,19.30
2023-03-21T13:09:07.074Z,19.30
2023-03-21T13:11:35.546Z,19.20
2023-03-21T13:14:20.294Z,19.20
2023-03-21T13:17:06.613Z,19.20
2023-03-21T13:19:53.819Z,19.00
2023-03-21T13:22:32.261Z,19.10
2023-03-21T13:25:27.674Z,19.10
2023-03-21T13:28:06.762Z,19.10
2023-03-21T13:30:34.051Z,19.10
2023-03-21T13:33:08.272Z,19.10
2023-03-21T13:35:38.483Z,19.10
2023-03-21T13:38:22.944Z,19.10
2023-03-21T13:41:14.153Z,19.00
2023-03-21T13:44:03.138Z,18.80
2023-03-21T13:46:34.101Z,18.70
2023-03-21T13:49:11.159Z,18.60
2023-03-21T13:52:10.638Z,18.70
2023-03-21T13:54:56.539Z,18.60
2023-03-21T13:57:46.872Z,18.60
2023-03-21T14:00:30.301Z,18.50
2023-03-21T14:03:02.971Z,18.50
2023-03-21T14:05:30.282Z,18.30
2023-03-21T14:08:15.261Z,18.10
2023-03-21T14:10:46.978Z,18.00
2023-03-21T14:13:19.293Z,17.90
2023-03-21T14:16:08.420Z,18.00
2023-03-21T14:18:54.239Z,17.90
2023-03-21T14:21:28.159Z,17.90
2023-03-21T14:24:05.106Z,17.90
2023-03-21T14:26:39.330Z,17.90
2023-03-21T14:29:22.991Z,18.00
2023-03-21T14:31:53.007Z,18.10
2023-03-21T14:34:21.712Z,18.20
2023-03-21T14:36:57.483Z,18.20
2023-03-21T14:39:31.367Z,18.20
2023-03-21T14:42:07.989Z,18.20
2023-03-21T14:44:53.507Z,18.20
2023-03-21T14:47:30.041Z,18.20
2023-03-21T14:49:58.559Z,18.30
2023-03-21T14:52:31.227Z,18.20
2023-03-21T14:54:59.641Z,18.20
2023-03-21T14:57:31.047Z,18.00
2023-03-21T15:00:02.064Z,18.00
2023-03-21T15:02:36.748Z,17.90
2023-03-21T15:05:24.810Z,17.90
2023-03-21T15:08:01.826Z,17.90
2023-03-21T15:10:31.915Z,17.80
2023-03-21T15:13:02.381Z,17.70
2023-03-21T15:15:31.917Z,17.60
2023-03-21T15:18:05.144Z,17.50
2023-03-21T15:20:35.900Z,17.40
2023-03-21T15:23:27.007Z,17.40
2023-03-21T15:25:54.752Z,17.30
2023-03-21T15:28:22.087Z,17.30
2023-03-21T15:30:51.336Z,17.20
2023-03-21T15:33:19.775Z,17.20
2023-03-21T15:35:54.263Z,17.20
2023-03-21T15:38:45.180Z,17.20
2023-03-21T15:41:21.293Z,17.20
2023-03-21T15:44:02.988Z,17.30
2023-03-21T15:46:44.394Z,17.30
2023-03-21T15:49:17.592Z,17.30
2023-03-21T15:52:02.951Z,17.30
2023-03-21T15:54:34.009Z,17.30
2023-03-21T15:57:19.913Z,17.30
2023-03-21T15:59:47.945Z,17.30
2023-03-21T16:02:22.272Z,17.40
2023-03-21T16:05:01.651Z,17.40
2023-03-21T16:07:29.091Z,17.50
2023-03-21T16:10:02.096Z,17.60
2023-03-21T16:12:29.207Z,17.60
2023-03-21T16:14:56.632Z,17.70
2023-03-21T16:17:42.638Z,17.70
2023-03-21T16:20:20.486Z,17.70
2023-03-21T16:22:48.760Z,17.70
2023-03-21T16:25:16.348Z,17.70
2023-03-21T16:27:44.022Z,17.60
2023-03-21T16:30:16.757Z,17.50
2023-03-21T16:32:44.106Z,17.40
2023-03-21T16:35:11.438Z,17.40
2023-03-21T16:37:38.944Z,17.40
2023-03-21T16:40:37.506Z,17.30
2023-03-21T16:43:05.318Z,17.30
2023-03-21T16:45:32.881Z,17.30
2023-03-21T16:48:00.629Z,17.20
2023-03-21T16:50:40.370Z,17.10
2023-03-21T16:53:08.698Z,17.00
2023-03-21T16:55:37.238Z,16.90
2023-03-21T16:58:05.034Z,16.90
2023-03-21T17:00:32.859Z,16.90
2023-03-21T17:03:02.580Z,16.80
2023-03-21T17:05:33.102Z,16.80
2023-03-21T17:08:02.581Z,16.80
2023-03-21T17:10:31.698Z,16.70
2023-03-21T17:12:59.073Z,16.70
2023-03-21T17:15:26.281Z,16.70
2023-03-21T17:17:55.843Z,16.70
2023-03-21T17:20:31.784Z,16.70
2023-03-21T17:22:59.486Z,16.60
2023-03-21T17:25:27.180Z,16.60
2023-03-21T17:27:54.754Z,16.60
2023-03-21T17:30:28.259Z,16.60
2023-03-21T17:32:55.860Z,16.60
2023-03-21T17:35:24.115Z,16.50
2023-03-21T17:37:52.045Z,16.50
2023-03-21T17:40:24.806Z,16.50
2023-03-21T17:42:53.209Z,16.40
2023-03-21T17:45:23.156Z,16.40
2023-03-21T17:47:51.096Z,16.40
2023-03-21T17:50:24.734Z,16.30
2023-03-21T17:52:52.300Z,16.30
2023-03-21T17:55:21.316Z,16.20
2023-03-21T17:57:49.631Z,16.20
2023-03-21T18:00:20.985Z,16.20
2023-03-21T18:02:48.871Z,16.10
2023-03-21T18:05:16.472Z,16.10
2023-03-21T18:08:08.835Z,16.00
2023-03-21T18:10:32.960Z,16.00
2023-03-21T18:13:00.318Z,16.00
2023-03-21T18:15:30.548Z,15.90
2023-03-21T18:17:58.889Z,15.90
2023-03-21T18:20:49.849Z,15.90
2023-03-21T18:23:15.495Z,15.90
2023-03-21T18:25:42.918Z,15.90
2023-03-21T18:28:12.326Z,15.90
2023-03-21T18:31:07.089Z,15.80
2023-03-21T18:33:28.664Z,15.80
2023-03-21T18:35:59.973Z,15.80
2023-03-21T18:38:28.187Z,15.80
2023-03-21T18:40:56.402Z,15.80
2023-03-21T18:46:11.776Z,15.70
2023-03-21T18:48:39.319Z,15.80
2023-03-21T18:51:07.158Z,15.80
2023-03-21T18:53:34.384Z,15.70
2023-03-21T18:56:10.111Z,15.70
2023-03-21T18:58:37.670Z,15.70
2023-03-21T19:01:05.308Z,15.70
2023-03-21T19:03:36.970Z,15.70
2023-03-21T19:06:06.499Z,15.70
2023-03-21T19:08:41.756Z,15.70
2023-03-21T19:11:10.145Z,15.70
2023-03-21T19:13:37.301Z,15.70
2023-03-21T19:16:04.676Z,15.70
2023-03-21T19:21:19.949Z,15.70
2023-03-21T19:24:22.845Z,15.70
2023-03-21T19:26:34.524Z,15.60
2023-03-21T19:29:01.877Z,15.60
2023-03-21T19:31:28.991Z,15.60
2023-03-21T19:33:56.304Z,15.60
2023-03-21T19:36:23.746Z,15.60
2023-03-21T19:38:51.807Z,15.60
2023-03-21T19:41:20.251Z,15.60
2023-03-21T19:43:54.880Z,15.60
2023-03-21T19:46:25.317Z,15.60
2023-03-21T19:48:56.981Z,15.60
2023-03-21T19:51:29.436Z,15.60
2023-03-21T19:54:04.263Z,15.50
2023-03-21T19:56:31.913Z,15.60
2023-03-21T19:58:59.855Z,15.50
2023-03-21T20:01:27.712Z,15.50
2023-03-21T20:03:54.907Z,15.50
2023-03-21T20:06:25.070Z,15.40
2023-03-21T20:11:40.738Z,15.40
2023-03-21T20:14:10.211Z,15.40
2023-03-21T20:16:37.670Z,15.40
2023-03-21T20:19:06.836Z,15.40
2023-03-21T20:21:44.382Z,15.40
2023-03-21T20:24:13.871Z,15.30
2023-03-21T20:26:41.080Z,15.30
2023-03-21T20:29:56.309Z,15.30
2023-03-21T20:31:56.125Z,15.30
2023-03-21T20:34:23.319Z,15.30
2023-03-21T20:36:50.530Z,15.30
2023-03-21T20:39:17.932Z,15.20
2023-03-21T20:41:45.101Z,15.30
2023-03-21T20:44:44.774Z,15.20
2023-03-21T20:47:00.773Z,15.20
2023-03-21T20:49:28.482Z,15.20
2023-03-21T20:54:45.731Z,15.20
2023-03-21T20:57:12.858Z,15.10
2023-03-21T20:59:40.243Z,15.10
2023-03-21T21:02:07.389Z,15.00
2023-03-21T21:04:49.745Z,15.00
2023-03-21T21:07:22.871Z,14.90
2023-03-21T21:09:50.278Z,14.90
2023-03-21T21:12:19.358Z,14.90
2023-03-21T21:14:48.281Z,14.90
2023-03-21T21:17:35.184Z,14.90
2023-03-21T21:20:16.894Z,14.90
2023-03-21T21:22:58.453Z,14.90
2023-03-21T21:25:26.721Z,14.90
2023-03-21T21:27:54.068Z,14.90
2023-03-21T21:30:21.620Z,14.90
2023-03-21T21:32:49.546Z,14.90
2023-03-21T21:35:19.500Z,14.80
2023-03-21T21:37:47.214Z,14.80
2023-03-21T21:40:16.815Z,14.80
2023-03-21T21:42:44.300Z,14.80
2023-03-21T21:45:13.475Z,14.80
2023-03-21T21:47:41.165Z,14.80
2023-03-21T21:50:09.055Z,14.80
2023-03-21T21:52:37.456Z,14.80
2023-03-21T21:55:06.529Z,14.80
2023-03-21T21:57:34.788Z,14.80
2023-03-21T22:00:06.410Z,14.80
2023-03-21T22:02:33.681Z,14.70
2023-03-21T22:05:01.001Z,14.80
2023-03-21T22:07:28.235Z,14.70
2023-03-21T22:09:55.418Z,14.70
2023-03-21T22:12:22.539Z,14.70
2023-03-21T22:14:49.626Z,14.70
2023-03-21T22:17:17.091Z,14.70
2023-03-21T22:19:52.695Z,14.60
2023-03-21T22:22:26.233Z,14.60
2023-03-21T22:24:56.334Z,14.70
2023-03-21T22:27:24.059Z,14.60
2023-03-21T22:29:51.318Z,14.60
2023-03-21T22:32:19.201Z,14.60
2023-03-21T22:34:46.497Z,14.60
2023-03-21T22:37:13.828Z,14.60
2023-03-21T22:39:40.936Z,14.60
2023-03-21T22:42:08.020Z,14.60
2023-03-21T22:44:35.286Z,14.60
2023-03-21T22:47:04.948Z,14.50
2023-03-21T22:49:32.399Z,14.50
2023-03-21T22:51:59.921Z,14.50
2023-03-21T22:54:27.317Z,14.50
2023-03-21T22:56:54.500Z,14.50
2023-03-21T22:59:21.645Z,14.50
2023-03-21T23:01:49.412Z,14.50
2023-03-21T23:04:16.899Z,14.50
2023-03-21T23:06:44.542Z,14.50
2023-03-21T23:09:12.282Z,14.50
2023-03-21T23:11:39.577Z,14.50
2023-03-21T23:14:08.720Z,14.40
2023-03-21T23:16:38.384Z,14.40
2023-03-21T23:19:06.249Z,14.40
2023-03-21T23:21:35.176Z,14.40
2023-03-21T23:24:02.602Z,14.30
2023-03-21T23:26:29.726Z,14.30
2023-03-21T23:28:57.293Z,14.30
2023-03-21T23:31:26.644Z,14.30
2023-03-21T23:33:54.476Z,14.30
2023-03-21T23:36:22.688Z,14.20
2023-03-21T23:38:50.523Z,14.30
2023-03-21T23:41:20.969Z,14.30
2023-03-21T23:43:48.680Z,14.30
2023-03-21T23:46:16.810Z,14.30
2023-03-21T23:48:44.916Z,14.30
2023-03-21T23:51:16.017Z,14.20
2023-03-21T23:53:44.970Z,14.20
2023-03-21T23:56:14.668Z,14.20
2023-03-21T23:58:41.793Z,14.30
